This is the latest recevied weather packets stored in our database for station/object SP6KBU-12. If no packets are shown the sender has not sent any weather packets the latest 10 day(s).
| Time | Temp. | Humidity | Pressure | Rain* | Wind** | Luminosity | Snow |
|---|---|---|---|---|---|---|---|
| 1787596724 | 13.33° C | 57% | 1023.6 hPa | - | - | - | - |
| 1787595925 | 13.33° C | 58% | 1023.6 hPa | - | - | - | - |
| 1787595025 | 14.44° C | 54% | 1023.5 hPa | - | - | - | - |
| 1787594125 | 15° C | 54% | 1023.5 hPa | - | - | - | - |
| 1787593225 | 15.56° C | 53% | 1023.6 hPa | - | - | - | - |
| 1787592370 | 16.11° C | 53% | 1023.6 hPa | - | - | - | - |
| 1787592324 | 16.11° C | 53% | 1023.6 hPa | - | - | - | - |
| 1787591423 | 16.67° C | 51% | 1023.6 hPa | - | - | - | - |
| 1787590523 | 16.67° C | 49% | 1023.7 hPa | - | - | - | - |
| 1787589623 | 17.78° C | 46% | 1023.7 hPa | - | - | - | - |
| 1787588723 | 17.78° C | 45% | 1023.8 hPa | - | - | - | - |
| 1787587823 | 18.33° C | 44% | 1023.8 hPa | - | - | - | - |
| 1787586956 | 18.89° C | 42% | 1023.9 hPa | - | - | - | - |
| 1787586923 | 18.89° C | 42% | 1023.9 hPa | - | - | - | - |
| 1787586060 | 20° C | 40% | 1024.1 hPa | - | - | - | - |
| 1787586022 | 20° C | 40% | 1024.1 hPa | - | - | - | - |
| 1787585155 | 22.78° C | 36% | 1024 hPa | - | - | - | - |
| 1787585121 | 22.78° C | 36% | 1024 hPa | - | - | - | - |
| 1787584221 | 20° C | 42% | 1024.2 hPa | - | - | - | - |
| 1787583321 | 21.11° C | 39% | 1024.4 hPa | - | - | - | - |
| 1787582421 | 21.67° C | 38% | 1024.3 hPa | - | - | - | - |
| 1787581555 | 23.89° C | 34% | 1024.3 hPa | - | - | - | - |
| 1787581521 | 23.89° C | 34% | 1024.3 hPa | - | - | - | - |
| 1787580674 | 23.89° C | 36% | 1024.4 hPa | - | - | - | - |
| 1787580620 | 23.89° C | 36% | 1024.4 hPa | - | - | - | - |
* Rain since midnight (hover to see other rain measurements)
** Current wind speed in m/s (hover to see current wind gust speed)